Time;durP1;ratioP1;P1;durP2;ratioP2;P2;SDS_P1;SDS_P2;PMS_P1;PMS_P2;Temp;Humidity;BMP_temperature;BMP_pressure;BME280_temperature;BME280_humidity;BME280_pressure;Samples;Min_cycle;Max_cycle;Signal;HPM_P1;HPM_P2
2022/10/25 00:01:56;;;;;;;5.50;1.67;;;;;;;14.08;100.00;99738.25;12225430;19;20026;-80
2022/10/25 00:05:58;;;;;;;6.63;0.95;;;;;;;14.13;100.00;99738.28;12215727;19;20002;-79
2022/10/25 00:09:59;;;;;;;3.00;1.10;;;;;;;14.19;100.00;99738.25;12235404;19;20492;-80
2022/10/25 00:14:04;;;;;;;7.00;1.00;;;;;;;14.06;100.00;99734.09;12235362;19;20030;-79
2022/10/25 00:18:06;;;;;;;3.05;1.05;;;;;;;14.08;100.00;99734.66;12211276;19;20034;-79
2022/10/25 00:22:08;;;;;;;5.45;0.98;;;;;;;14.08;100.00;99732.72;12234317;19;20010;-79
2022/10/25 00:26:10;;;;;;;4.72;1.30;;;;;;;14.03;100.00;99745.72;12258041;19;20011;-79
2022/10/25 00:30:12;;;;;;;6.38;1.27;;;;;;;14.03;100.00;99741.00;12231024;19;20034;-80
2022/10/25 00:34:14;;;;;;;2.83;0.80;;;;;;;14.01;100.00;99748.78;12236682;19;20010;-80
2022/10/25 00:38:16;;;;;;;4.07;0.90;;;;;;;14.00;100.00;99752.66;12237357;19;20010;-79
2022/10/25 00:42:24;;;;;;;1.88;0.95;;;;;;;14.02;100.00;99749.63;12213159;19;20087;-79
2022/10/25 00:46:30;;;;;;;3.90;0.88;;;;;;;13.95;100.00;99755.44;12270309;19;20043;-79
2022/10/25 00:50:32;;;;;;;3.63;1.13;;;;;;;13.91;100.00;99749.56;12269005;19;20007;-79
2022/10/25 00:54:38;;;;;;;4.10;1.15;;;;;;;13.88;100.00;99752.91;12247355;19;20502;-79
2022/10/25 00:58:40;;;;;;;4.35;1.20;;;;;;;13.84;100.00;99751.78;12240611;19;20014;-79
2022/10/25 01:02:42;;;;;;;3.90;1.13;;;;;;;13.78;100.00;99757.59;12216260;19;20654;-79
2022/10/25 01:06:49;;;;;;;4.18;0.80;;;;;;;13.77;100.00;99758.69;12233000;19;20002;-80
2022/10/25 01:10:51;;;;;;;2.33;1.00;;;;;;;13.75;100.00;99763.66;12237767;19;20018;-80
2022/10/25 01:14:54;;;;;;;4.70;0.90;;;;;;;13.76;100.00;99765.31;12199438;19;20029;-80
2022/10/25 01:19:33;;;;;;;2.58;1.15;;;;;;;13.73;100.00;99775.00;12210157;19;20019;-80
2022/10/25 01:24:45;;;;;;;4.72;0.80;;;;;;;13.74;100.00;99771.16;12200945;19;20011;-79
2022/10/25 01:29:29;;;;;;;6.10;1.10;;;;;;;13.70;100.00;99783.84;12216928;19;20033;-79
2022/10/25 01:33:38;;;;;;;2.17;1.23;;;;;;;13.74;100.00;99770.28;12196283;19;20060;-80
2022/10/25 01:37:52;;;;;;;7.28;1.10;;;;;;;13.78;100.00;99771.44;12220696;19;20919;-80
2022/10/25 01:42:03;;;;;;;3.00;0.80;;;;;;;13.82;100.00;99778.09;12197596;19;20007;-79
2022/10/25 01:46:11;;;;;;;2.53;0.90;;;;;;;13.79;100.00;99770.31;12217706;19;20504;-80
2022/10/25 01:50:20;;;;;;;6.05;1.20;;;;;;;13.76;100.00;99771.69;12219557;19;20011;-79
2022/10/25 01:54:24;;;;;;;2.08;1.00;;;;;;;13.72;100.00;99780.84;12196319;19;20011;-79
2022/10/25 01:58:55;;;;;;;6.82;2.22;;;;;;;13.70;100.00;99781.09;12215399;19;20015;-80
2022/10/25 02:03:35;;;;;;;2.00;0.98;;;;;;;13.70;100.00;99774.72;12196216;19;20011;-79
2022/10/25 02:08:03;;;;;;;5.15;1.10;;;;;;;13.71;100.00;99782.75;12215822;19;20756;-79
2022/10/25 02:12:09;;;;;;;7.00;1.08;;;;;;;13.71;100.00;99795.75;12194223;19;20014;-79
2022/10/25 02:16:18;;;;;;;2.30;0.90;;;;;;;13.60;100.00;99784.66;12214714;19;20014;-79
2022/10/25 02:20:23;;;;;;;3.05;0.77;;;;;;;13.57;100.00;99785.19;12218388;19;20015;-80
2022/10/25 02:24:29;;;;;;;5.47;1.00;;;;;;;13.54;100.00;99782.16;12191207;19;19998;-79
2022/10/25 02:28:32;;;;;;;4.47;1.20;;;;;;;13.48;100.00;99774.91;12216068;19;20011;-79
2022/10/25 02:32:33;;;;;;;;;;;;;;;13.55;100.00;99772.72;12192861;19;20003;-79
2022/10/25 02:36:35;;;;;;;6.93;2.15;;;;;;;13.57;100.00;99776.91;12215771;19;19919;-79
2022/10/25 02:40:37;;;;;;;2.83;1.08;;;;;;;13.58;100.00;99773.00;12213016;19;20021;-79
2022/10/25 02:44:38;;;;;;;5.30;1.50;;;;;;;13.58;100.00;99781.31;12192846;19;20021;-79
2022/10/25 02:48:40;;;;;;;4.63;1.23;;;;;;;13.66;100.00;99779.97;12212957;19;20011;-79
2022/10/25 02:52:42;;;;;;;3.80;1.63;;;;;;;13.64;100.00;99787.72;12214848;19;20098;-79
2022/10/25 02:56:44;;;;;;;4.53;1.13;;;;;;;13.65;100.00;99784.69;12191415;19;20026;-79
2022/10/25 03:00:47;;;;;;;4.72;1.23;;;;;;;13.57;100.00;99782.44;12215438;19;20007;-79
2022/10/25 03:04:48;;;;;;;6.45;1.20;;;;;;;13.52;100.00;99787.94;12212624;19;20360;-80
2022/10/25 03:08:50;;;;;;;5.38;1.23;;;;;;;13.50;100.00;99789.31;12193109;19;20017;-79
2022/10/25 03:12:52;;;;;;;2.83;1.48;;;;;;;13.45;100.00;99779.06;12212618;19;20022;-79
2022/10/25 03:16:53;;;;;;;4.85;1.30;;;;;;;13.45;100.00;99782.66;12250083;19;20009;-79
2022/10/25 03:20:56;;;;;;;5.05;1.20;;;;;;;13.43;100.00;99781.25;12241751;19;20579;-80
2022/10/25 03:24:58;;;;;;;4.13;1.30;;;;;;;13.39;100.00;99782.91;12254246;19;20090;-80
2022/10/25 03:29:00;;;;;;;7.75;1.60;;;;;;;13.37;100.00;99776.78;12220250;19;20032;-80
2022/10/25 03:33:01;;;;;;;7.00;1.35;;;;;;;13.36;100.00;99786.22;12194804;19;20007;-80
2022/10/25 03:37:03;;;;;;;6.75;1.65;;;;;;;13.37;100.00;99793.41;12213980;19;20499;-80
2022/10/25 03:41:05;;;;;;;6.60;1.80;;;;;;;13.34;100.00;99797.53;12213556;19;20038;-80
2022/10/25 03:45:07;;;;;;;5.78;1.40;;;;;;;13.39;100.00;99799.50;12186238;19;20010;-80
2022/10/25 03:49:09;;;;;;;7.20;1.67;;;;;;;13.35;100.00;99790.88;12208715;19;20042;-80
2022/10/25 03:53:10;;;;;;;5.40;1.70;;;;;;;13.31;100.00;99806.38;12207937;19;20013;-80
2022/10/25 03:57:12;;;;;;;3.13;1.17;;;;;;;13.25;100.00;99796.38;12184329;19;20011;-80
2022/10/25 04:01:14;;;;;;;8.95;1.80;;;;;;;13.19;100.00;99801.03;12207873;19;20003;-81
2022/10/25 04:05:16;;;;;;;6.68;1.58;;;;;;;13.15;100.00;99801.84;12205226;19;20018;-81
2022/10/25 04:09:18;;;;;;;3.55;1.27;;;;;;;13.14;100.00;99806.50;12186065;19;20080;-80
2022/10/25 04:13:20;;;;;;;5.55;1.38;;;;;;;13.09;100.00;99806.50;12218916;19;20010;-80
2022/10/25 04:17:23;;;;;;;8.27;1.83;;;;;;;13.08;100.00;99799.28;12225528;19;20416;-81
2022/10/25 04:21:25;;;;;;;6.53;1.67;;;;;;;13.09;100.00;99794.59;12208892;19;20020;-79
2022/10/25 04:25:27;;;;;;;7.43;1.90;;;;;;;13.06;100.00;99793.19;12206729;19;20014;-81
2022/10/25 04:29:29;;;;;;;5.22;1.98;;;;;;;13.05;100.00;99794.28;12184273;19;20352;-80
2022/10/25 04:33:31;;;;;;;5.55;1.88;;;;;;;13.02;100.00;99802.28;12208362;19;20464;-80
2022/10/25 04:37:32;;;;;;;13.27;2.20;;;;;;;13.05;100.00;99801.75;12203604;19;20017;-80
2022/10/25 04:41:34;;;;;;;4.53;1.85;;;;;;;13.08;100.00;99812.28;12183917;19;20499;-80
2022/10/25 04:45:36;;;;;;;6.65;2.40;;;;;;;13.10;100.00;99807.31;12205298;19;20015;-80
2022/10/25 04:49:38;;;;;;;4.68;1.88;;;;;;;13.10;100.00;99810.91;12211053;19;20112;-79
2022/10/25 04:53:39;;;;;;;9.57;1.80;;;;;;;13.09;100.00;99822.28;12192520;19;20034;-79
2022/10/25 04:57:41;;;;;;;3.58;1.60;;;;;;;13.11;100.00;99817.28;12211689;19;20010;-79
2022/10/25 05:01:42;;;;;;;8.57;1.85;;;;;;;13.10;100.00;99816.44;12216839;19;20050;-80
2022/10/25 05:05:45;;;;;;;5.30;1.63;;;;;;;13.11;100.00;99818.09;12192860;19;20365;-80
2022/10/25 05:09:47;;;;;;;4.43;2.07;;;;;;;13.14;100.00;99823.09;12216142;19;20007;-80
2022/10/25 05:13:49;;;;;;;7.80;1.88;;;;;;;13.17;100.00;99821.75;12214760;19;20075;-79
2022/10/25 05:17:50;;;;;;;11.60;2.47;;;;;;;13.18;100.00;99826.19;12187174;19;20487;-79
2022/10/25 05:21:52;;;;;;;9.20;2.05;;;;;;;13.15;100.00;99835.03;12215380;19;20026;-79
2022/10/25 05:26:20;;;;;;;7.53;2.13;;;;;;;13.15;100.00;99833.09;12214438;19;20014;-78
2022/10/25 05:30:22;;;;;;;7.70;1.92;;;;;;;13.14;100.00;99834.19;12178551;19;20034;-77
2022/10/25 05:34:24;;;;;;;5.50;2.08;;;;;;;13.14;100.00;99836.94;12184306;19;20021;-78
2022/10/25 05:38:27;;;;;;;;;;;;;;;13.07;100.00;99835.53;12191431;19;20010;-78
2022/10/25 05:42:29;;;;;;;8.57;1.53;;;;;;;13.07;100.00;99835.53;12214248;19;19982;-78
2022/10/25 05:46:32;;;;;;;9.33;1.97;;;;;;;13.11;100.00;99840.25;12215894;19;20248;-78
2022/10/25 05:50:35;;;;;;;7.60;2.33;;;;;;;13.14;100.00;99836.94;12195016;19;20066;-79
2022/10/25 05:54:37;;;;;;;7.75;2.30;;;;;;;13.17;100.00;99850.25;12215867;19;20030;-79
2022/10/25 05:58:40;;;;;;;6.15;2.33;;;;;;;13.17;100.00;99847.47;12212373;19;20013;-78
2022/10/25 06:02:43;;;;;;;9.45;2.88;;;;;;;13.18;100.00;99846.41;12193799;19;20552;-79
2022/10/25 06:06:46;;;;;;;6.28;2.28;;;;;;;13.16;100.00;99847.75;12215109;19;20530;-78
2022/10/25 06:10:48;;;;;;;;;;;;;;;13.14;100.00;99856.31;12227175;19;20010;-77
2022/10/25 06:14:49;;;;;;;10.88;2.50;;;;;;;13.14;100.00;99859.06;12249561;19;19915;-77
2022/10/25 06:18:52;;;;;;;8.90;2.92;;;;;;;13.20;100.00;99866.31;12249355;19;20014;-79
2022/10/25 06:22:55;;;;;;;5.70;2.10;;;;;;;13.22;100.00;99877.13;12221187;19;20010;-79
2022/10/25 06:26:57;;;;;;;10.23;2.17;;;;;;;13.33;100.00;99872.53;12193455;19;20066;-78
2022/10/25 06:31:11;;;;;;;10.25;2.35;;;;;;;13.43;100.00;99878.97;12219316;19;20075;-78
2022/10/25 06:35:13;;;;;;;5.95;2.20;;;;;;;13.47;100.00;99892.25;12218273;19;20010;-80
2022/10/25 06:39:15;;;;;;;4.15;2.05;;;;;;;13.52;100.00;99906.97;12196587;19;20011;-78
2022/10/25 06:43:17;;;;;;;6.57;2.15;;;;;;;13.62;100.00;99912.59;12216245;19;20006;-79
2022/10/25 06:47:18;;;;;;;7.68;2.58;;;;;;;13.73;100.00;99918.19;12218395;19;20460;-79
2022/10/25 06:51:23;;;;;;;10.38;2.28;;;;;;;13.87;100.00;99925.75;12200855;19;20011;-78
2022/10/25 06:55:24;;;;;;;6.72;2.38;;;;;;;14.00;100.00;99927.19;12215781;19;20011;-78
2022/10/25 06:59:30;;;;;;;10.13;2.78;;;;;;;14.14;100.00;99936.69;12192837;19;20006;-78
2022/10/25 07:03:35;;;;;;;6.55;1.92;;;;;;;14.23;100.00;99941.72;12215214;19;20007;-79
2022/10/25 07:07:40;;;;;;;5.40;1.80;;;;;;;14.27;100.00;99934.50;12214618;19;20010;-79
2022/10/25 07:11:44;;;;;;;10.90;2.47;;;;;;;14.37;100.00;99942.88;12192786;19;20140;-79
2022/10/25 07:15:46;;;;;;;6.20;1.70;;;;;;;14.46;100.00;99946.78;12211955;19;20044;-79
2022/10/25 07:19:47;;;;;;;4.80;1.50;;;;;;;14.54;100.00;99951.81;12216549;19;20082;-78
2022/10/25 07:23:51;;;;;;;9.68;2.30;;;;;;;14.57;100.00;99950.44;12193164;19;20011;-79
2022/10/25 07:27:53;;;;;;;6.00;1.63;;;;;;;14.68;100.00;99957.69;12211599;19;20018;-79
2022/10/25 07:31:56;;;;;;;;;;;;;;;14.76;100.00;99942.47;12212462;19;20003;-78
2022/10/25 07:35:58;;;;;;;6.22;2.17;;;;;;;14.81;100.00;99945.22;12191013;19;19917;-78
2022/10/25 07:40:10;;;;;;;6.03;1.60;;;;;;;14.94;100.00;99941.94;12211475;19;20562;-78
2022/10/25 07:44:12;;;;;;;8.27;1.92;;;;;;;14.98;100.00;99956.91;12210582;19;20685;-79
2022/10/25 07:48:20;;;;;;;7.18;2.08;;;;;;;15.07;100.00;99965.53;12179245;19;20023;-78
2022/10/25 07:52:23;;;;;;;7.50;1.98;;;;;;;15.16;100.00;99974.13;12206106;19;20010;-79
2022/10/25 07:56:24;;;;;;;8.32;2.22;;;;;;;15.40;100.00;99968.88;12203342;19;20021;-78
2022/10/25 08:00:26;;;;;;;8.10;1.88;;;;;;;15.53;100.00;99975.78;12211425;19;20010;-80
2022/10/25 08:04:30;;;;;;;10.00;2.03;;;;;;;15.56;100.00;99975.28;12208178;19;20026;-78
2022/10/25 08:08:52;;;;;;;7.72;2.08;;;;;;;15.72;100.00;99979.72;12190786;19;20429;-78
2022/10/25 08:12:55;;;;;;;;;;;;;;;15.71;100.00;99975.28;12212196;19;20015;-78
2022/10/25 08:16:57;;;;;;;4.25;1.73;;;;;;;15.71;100.00;99980.84;12209403;19;19919;-79
2022/10/25 08:21:02;;;;;;;11.48;2.03;;;;;;;15.71;100.00;99980.84;12187009;19;20022;-79
2022/10/25 08:25:08;;;;;;;6.80;1.80;;;;;;;15.86;100.00;99989.16;12222022;19;20018;-80
2022/10/25 08:29:10;;;;;;;6.80;1.70;;;;;;;15.90;100.00;99995.78;12224376;19;20075;-79
2022/10/25 08:33:13;;;;;;;9.70;2.30;;;;;;;15.93;100.00;99995.22;12199852;19;20034;-78
2022/10/25 08:37:14;;;;;;;5.43;2.00;;;;;;;15.98;100.00;99985.25;12220103;19;20080;-79
2022/10/25 08:41:18;;;;;;;5.40;2.20;;;;;;;16.03;100.00;99987.97;12223975;19;20014;-80
2022/10/25 08:45:37;;;;;;;11.57;1.95;;;;;;;16.08;100.00;99999.09;12193655;19;20015;-79
2022/10/25 08:49:42;;;;;;;7.75;2.13;;;;;;;16.22;100.00;99996.56;12221617;19;20027;-79
2022/10/25 08:53:49;;;;;;;9.35;2.28;;;;;;;16.34;100.00;99999.88;12195458;19;20000;-79
2022/10/25 08:57:52;;;;;;;8.18;1.88;;;;;;;16.32;100.00;99997.34;12218635;19;20010;-80
2022/10/25 09:01:58;;;;;;;8.88;1.85;;;;;;;16.30;100.00;100005.16;12218736;19;20011;-78
2022/10/25 09:06:35;;;;;;;8.77;1.95;;;;;;;16.30;100.00;100002.38;12205933;19;20006;-79
2022/10/25 09:10:59;;;;;;;6.85;1.95;;;;;;;16.38;100.00;100010.13;12220689;19;20368;-79
2022/10/25 09:15:19;;;;;;;9.82;2.10;;;;;;;16.56;100.00;100013.38;12197391;19;20007;-80
2022/10/25 09:19:41;;;;;;;10.88;2.35;;;;;;;16.80;100.00;100008.84;12218341;19;20072;-80
2022/10/25 09:23:54;;;;;;;10.48;2.65;;;;;;;17.02;100.00;100016.00;12198289;19;20024;-79
2022/10/25 09:27:59;;;;;;;9.55;1.77;;;;;;;17.14;100.00;100019.25;12217566;19;20003;-79
2022/10/25 09:32:15;;;;;;;6.82;2.03;;;;;;;17.25;100.00;100006.06;12216615;19;20480;-79
2022/10/25 09:36:28;;;;;;;7.85;1.92;;;;;;;17.25;100.00;100012.50;12195825;19;20027;-80
2022/10/25 09:40:43;;;;;;;4.55;1.60;;;;;;;17.09;100.00;100027.63;12220454;19;20003;-78
2022/10/25 09:44:57;;;;;;;5.90;1.95;;;;;;;17.03;100.00;100021.25;12195252;19;20010;-79
2022/10/25 09:49:12;;;;;;;6.20;1.70;;;;;;;16.93;100.00;100024.09;12147873;19;20017;-79
2022/10/25 09:53:17;;;;;;;6.28;2.00;;;;;;;16.99;100.00;100017.38;12214939;19;20010;-78
2022/10/25 09:57:24;;;;;;;7.82;1.80;;;;;;;17.25;100.00;100028.34;12192935;19;20015;-78
2022/10/25 10:01:28;;;;;;;7.93;1.73;;;;;;;17.52;100.00;100025.13;12218367;19;20358;-78
2022/10/25 10:05:37;;;;;;;7.20;1.70;;;;;;;17.84;100.00;100032.09;12198113;19;20007;-79
2022/10/25 10:09:52;;;;;;;12.57;1.90;;;;;;;17.86;99.71;100033.47;12218046;19;20010;-78
2022/10/25 10:14:01;;;;;;;8.40;1.98;;;;;;;17.90;100.00;100030.94;12218888;19;20027;-79
2022/10/25 10:18:28;;;;;;;8.73;2.22;;;;;;;17.86;99.63;100032.66;12195027;19;20010;-78
2022/10/25 10:22:29;;;;;;;8.60;1.65;;;;;;;18.01;99.20;100028.88;12217454;19;20368;-80
2022/10/25 10:26:35;;;;;;;7.97;2.60;;;;;;;17.99;98.54;100024.44;12194440;19;20017;-79
2022/10/25 10:30:40;;;;;;;11.20;2.35;;;;;;;18.28;96.94;100028.31;12217231;19;20017;-79
2022/10/25 10:34:52;;;;;;;12.07;2.60;;;;;;;18.64;96.18;100023.97;12214072;19;20013;-79
2022/10/25 10:39:18;;;;;;;6.47;1.50;;;;;;;18.89;92.12;100025.66;12193480;19;20070;-79
2022/10/25 10:43:28;;;;;;;6.40;1.83;;;;;;;18.74;89.48;100023.06;12221595;19;20017;-78
2022/10/25 10:47:33;;;;;;;8.98;2.63;;;;;;;18.97;90.16;100012.94;12192214;19;20346;-79
2022/10/25 10:51:41;;;;;;;5.28;1.73;;;;;;;19.16;89.88;100006.56;12228197;19;20009;-76
2022/10/25 10:55:46;;;;;;;9.30;2.05;;;;;;;19.32;89.21;100013.56;12266102;19;19998;-78
2022/10/25 10:59:55;;;;;;;5.25;1.65;;;;;;;19.45;87.00;100009.16;12242224;19;20002;-80
2022/10/25 11:03:59;;;;;;;9.18;1.67;;;;;;;19.69;86.59;100017.47;12227533;19;20017;-81
2022/10/25 11:08:08;;;;;;;7.47;1.85;;;;;;;19.79;84.51;100014.50;12220655;19;20334;-81
2022/10/25 11:12:13;;;;;;;9.02;1.77;;;;;;;19.46;84.85;100024.81;12200219;19;20358;-81
2022/10/25 11:16:42;;;;;;;5.85;1.80;;;;;;;19.02;86.11;100021.28;12219226;19;20077;-82
2022/10/25 11:20:55;;;;;;;13.50;2.43;;;;;;;18.90;88.87;100020.88;12199206;19;20459;-82
2022/10/25 11:25:19;;;;;;;5.40;2.28;;;;;;;19.54;87.10;100013.78;12217807;19;20287;-83
2022/10/25 11:29:46;;;;;;;5.18;1.92;;;;;;;19.86;83.63;100014.94;12217688;19;20002;-81
2022/10/25 11:34:03;;;;;;;2.85;1.23;;;;;;;19.95;81.07;100029.84;12193886;19;20010;-81
2022/10/25 11:38:37;;;;;;;5.35;1.98;;;;;;;19.59;82.97;100021.22;12228701;19;20020;-79
2022/10/25 11:43:08;;;;;;;5.50;1.73;;;;;;;20.24;81.17;100021.22;12245644;19;20007;-78
2022/10/25 11:47:31;;;;;;;11.25;2.20;;;;;;;19.98;82.76;100022.84;12225883;19;20014;-81
2022/10/25 11:52:04;;;;;;;6.88;1.88;;;;;;;20.28;81.26;100021.41;12193545;19;20041;-81
2022/10/25 11:56:13;;;;;;;4.20;1.45;;;;;;;20.32;79.32;100018.84;12216918;19;20010;-81
2022/10/25 12:00:18;;;;;;;5.30;1.88;;;;;;;20.09;79.22;100026.28;12201185;19;20358;-81
2022/10/25 12:04:43;;;;;;;7.38;1.50;;;;;;;20.52;77.59;100015.66;12216527;19;20022;-80
2022/10/25 12:09:03;;;;;;;6.53;1.50;;;;;;;20.24;78.50;100023.19;12204183;19;20002;-82
2022/10/25 12:13:18;;;;;;;5.10;1.77;;;;;;;20.11;78.87;100022.03;12221714;19;20021;-82
2022/10/25 12:17:27;;;;;;;27.75;6.13;;;;;;;20.20;79.31;100027.75;12222269;19;20022;-83
2022/10/25 12:21:40;;;;;;;9.85;2.30;;;;;;;19.96;78.45;100019.53;12198585;19;20018;-81
2022/10/25 12:25:59;;;;;;;7.45;2.08;;;;;;;19.65;79.23;100011.66;12218528;19;20011;-81
2022/10/25 12:30:12;;;;;;;5.57;2.70;;;;;;;20.45;76.48;100004.03;12197303;19;20007;-81
2022/10/25 12:34:40;;;;;;;6.82;1.63;;;;;;;21.30;70.87;99993.22;12215419;19;20007;-81
2022/10/25 12:38:42;;;;;;;5.03;1.20;;;;;;;22.13;68.81;99996.44;12192074;19;20496;-81
2022/10/25 12:42:48;;;;;;;10.73;1.45;;;;;;;22.94;66.70;99987.66;12216321;19;20038;-80
2022/10/25 12:47:10;;;;;;;5.72;1.63;;;;;;;22.31;66.05;99997.38;12214176;19;20070;-80
2022/10/25 12:51:24;;;;;;;6.07;1.30;;;;;;;21.29;67.68;99992.38;12188800;19;20019;-81
2022/10/25 12:55:41;;;;;;;5.32;1.63;;;;;;;20.68;68.78;99989.00;12215966;19;20054;-80
2022/10/25 13:00:01;;;;;;;12.20;2.40;;;;;;;20.47;69.63;99980.19;12189844;19;20522;-81
2022/10/25 13:04:19;;;;;;;3.83;1.55;;;;;;;20.21;71.39;99985.47;12216809;19;20010;-81
2022/10/25 13:08:23;;;;;;;8.88;1.63;;;;;;;20.01;72.46;99989.47;12219850;19;20013;-81
2022/10/25 13:12:29;;;;;;;4.45;1.65;;;;;;;20.01;72.75;99989.47;12207386;19;20010;-81
2022/10/25 13:16:32;;;;;;;4.15;1.27;;;;;;;19.84;73.83;99992.06;12229769;19;20002;-82
2022/10/25 13:20:34;;;;;;;4.22;1.80;;;;;;;19.52;73.84;99979.69;12204060;19;20014;-81
2022/10/25 13:24:41;;;;;;;3.75;0.90;;;;;;;19.64;73.59;99978.41;12224660;19;20010;-81
2022/10/25 13:28:56;;;;;;;6.03;1.35;;;;;;;19.79;73.18;99981.78;12230078;19;20026;-82
2022/10/25 13:33:17;;;;;;;4.15;1.10;;;;;;;19.76;74.05;99974.00;12206505;19;20084;-81
2022/10/25 13:37:31;;;;;;;3.78;0.90;;;;;;;19.44;73.93;99966.41;12229763;19;20074;-82
2022/10/25 13:41:44;;;;;;;6.88;1.55;;;;;;;19.28;75.15;99971.44;12205547;19;20003;-81
2022/10/25 13:45:55;;;;;;;6.88;2.17;;;;;;;19.03;76.21;99972.66;12226794;19;20006;-81
2022/10/25 13:49:57;;;;;;;6.95;1.33;;;;;;;18.87;77.17;99968.44;12217889;19;20113;-81
2022/10/25 13:54:03;;;;;;;2.20;0.80;;;;;;;18.83;77.25;99975.75;12199488;19;20018;-82
2022/10/25 13:58:27;;;;;;;3.95;1.33;;;;;;;18.64;76.62;99982.09;12212635;19;20503;-81
2022/10/25 14:03:03;;;;;;;6.90;1.25;;;;;;;18.47;77.26;99972.56;12195448;19;20033;-81
2022/10/25 14:07:43;;;;;;;4.68;1.08;;;;;;;18.30;78.35;99975.88;12219472;19;20373;-80
2022/10/25 14:11:51;;;;;;;3.47;0.98;;;;;;;18.32;78.19;99977.22;12193314;19;20014;-80
2022/10/25 14:15:59;;;;;;;2.88;0.85;;;;;;;18.38;78.53;99970.47;12214631;19;20003;-81
2022/10/25 14:20:27;;;;;;;4.13;0.60;;;;;;;18.59;77.66;99957.06;12215072;19;20014;-80
2022/10/25 14:24:29;;;;;;;5.07;1.10;;;;;;;18.73;76.90;99959.13;12209533;19;20003;-79
2022/10/25 14:28:32;;;;;;;3.53;0.55;;;;;;;18.78;75.54;99954.31;12264983;19;20055;-80
2022/10/25 14:32:35;;;;;;;2.63;0.85;;;;;;;18.81;76.49;99956.50;12239931;19;20018;-80
2022/10/25 14:36:37;;;;;;;3.75;0.90;;;;;;;19.01;75.25;99962.94;12227083;19;20047;-81
2022/10/25 14:40:38;;;;;;;1.88;0.70;;;;;;;18.99;73.33;99959.63;12220900;19;20024;-81
2022/10/25 14:44:47;;;;;;;2.35;0.60;;;;;;;18.86;73.34;99958.41;12200752;19;20345;-80
2022/10/25 14:48:53;;;;;;;5.60;0.93;;;;;;;18.73;73.30;99964.69;12228862;19;20050;-81
2022/10/25 14:52:56;;;;;;;3.65;0.90;;;;;;;18.72;72.70;99949.09;12219156;19;20007;-81
2022/10/25 14:57:05;;;;;;;3.28;0.90;;;;;;;18.71;73.86;99945.47;12217759;19;20010;-80
2022/10/25 15:01:10;;;;;;;1.90;0.70;;;;;;;18.65;75.03;99944.72;12264496;19;20035;-81
2022/10/25 15:05:17;;;;;;;3.97;0.75;;;;;;;18.39;76.37;99946.19;12258950;19;20014;-81
2022/10/25 15:09:20;;;;;;;2.08;0.70;;;;;;;18.31;76.93;99955.19;12243487;19;20042;-81
2022/10/25 15:13:45;;;;;;;4.03;0.75;;;;;;;18.29;76.64;99946.28;12252889;19;20010;-81
2022/10/25 15:17:49;;;;;;;2.67;0.75;;;;;;;18.22;76.67;99943.88;12235824;19;20018;-81
2022/10/25 15:22:03;;;;;;;6.82;1.10;;;;;;;18.08;77.33;99943.75;12261943;19;20023;-80
2022/10/25 15:26:28;;;;;;;3.53;0.82;;;;;;;17.91;79.43;99948.97;12258413;19;20040;-80
2022/10/25 15:30:36;;;;;;;3.30;1.00;;;;;;;17.85;79.76;99944.59;12202975;19;20006;-81
2022/10/25 15:34:41;;;;;;;2.58;1.02;;;;;;;17.83;80.29;99949.63;12214752;19;20488;-81
2022/10/25 15:38:44;;;;;;;4.30;0.95;;;;;;;17.79;80.50;99940.16;12192553;19;20027;-81
2022/10/25 15:43:06;;;;;;;3.85;1.10;;;;;;;17.63;82.50;99936.66;12216578;19;20007;-81
2022/10/25 15:47:21;;;;;;;7.60;1.67;;;;;;;17.39;84.55;99929.09;12215953;19;20007;-80
2022/10/25 15:51:22;;;;;;;4.90;1.45;;;;;;;17.15;86.25;99936.53;12187120;19;20010;-81
2022/10/25 15:55:31;;;;;;;8.60;1.58;;;;;;;16.92;87.68;99949.22;12213716;19;20018;-81
2022/10/25 15:59:33;;;;;;;2.97;1.30;;;;;;;16.76;88.86;99940.97;12187993;19;20014;-81
2022/10/25 16:03:35;;;;;;;6.00;1.67;;;;;;;16.71;89.94;99942.94;12213850;19;20002;-81
2022/10/25 16:07:37;;;;;;;7.32;1.73;;;;;;;16.66;90.46;99938.25;12214650;19;20007;-81
2022/10/25 16:11:42;;;;;;;2.38;0.98;;;;;;;16.59;91.52;99934.94;12191767;19;20433;-81
2022/10/25 16:15:47;;;;;;;5.38;0.85;;;;;;;16.43;92.82;99936.16;12211971;19;20002;-81
2022/10/25 16:19:49;;;;;;;2.33;1.10;;;;;;;16.21;94.08;99934.56;12212382;19;20029;-82
2022/10/25 16:23:51;;;;;;;6.83;1.20;;;;;;;16.04;95.33;99934.91;12185027;19;20000;-81
2022/10/25 16:27:53;;;;;;;8.48;1.30;;;;;;;15.85;96.61;99934.66;12209660;19;20011;-81
2022/10/25 16:31:55;;;;;;;9.73;1.73;;;;;;;15.70;97.90;99930.00;12211157;19;20022;-81
2022/10/25 16:35:56;;;;;;;6.10;1.45;;;;;;;15.53;99.83;99935.00;12190047;19;20097;-81
2022/10/25 16:39:58;;;;;;;10.13;1.40;;;;;;;15.33;100.00;99937.78;12208532;19;20010;-80
2022/10/25 16:44:00;;;;;;;6.65;1.35;;;;;;;15.14;100.00;99931.94;12217696;19;20010;-80
2022/10/25 16:48:03;;;;;;;5.97;1.50;;;;;;;14.98;100.00;99933.88;12197149;19;20020;-80
2022/10/25 16:52:05;;;;;;;6.70;1.08;;;;;;;14.85;100.00;99935.25;12216694;19;20042;-80
2022/10/25 16:56:10;;;;;;;11.73;1.38;;;;;;;14.74;100.00;99936.34;12208889;19;20349;-80
2022/10/25 17:00:15;;;;;;;2.25;1.55;;;;;;;14.62;100.00;99931.03;12199085;19;20011;-78
2022/10/25 17:04:16;;;;;;;4.85;1.20;;;;;;;14.51;100.00;99921.84;12261230;19;20017;-78
2022/10/25 17:08:18;;;;;;;4.55;1.45;;;;;;;14.42;100.00;99917.09;12278033;19;20030;-77
2022/10/25 17:12:20;;;;;;;6.20;1.58;;;;;;;14.33;100.00;99912.06;12211542;19;20030;-80
2022/10/25 17:16:22;;;;;;;10.77;3.30;;;;;;;14.29;100.00;99921.22;12227414;19;20014;-80
2022/10/25 17:20:25;;;;;;;13.43;2.40;;;;;;;14.22;100.00;99915.06;12225183;19;20014;-81
2022/10/25 17:24:36;;;;;;;6.07;1.58;;;;;;;14.16;100.00;99905.06;12205018;19;20090;-81
2022/10/25 17:28:38;;;;;;;7.18;1.42;;;;;;;14.10;100.00;99910.63;12224685;19;20511;-79
2022/10/25 17:32:45;;;;;;;10.82;1.80;;;;;;;14.06;100.00;99906.72;12201408;19;20463;-80
2022/10/25 17:36:50;;;;;;;5.63;1.67;;;;;;;14.04;100.00;99897.84;12218756;19;20014;-81
2022/10/25 17:41:13;;;;;;;8.50;1.98;;;;;;;14.02;100.00;99890.91;12221251;19;20476;-80
2022/10/25 17:45:15;;;;;;;10.20;1.48;;;;;;;13.98;100.00;99890.63;12202700;19;20007;-80
2022/10/25 17:49:18;;;;;;;5.72;1.10;;;;;;;13.92;100.00;99888.94;12225205;19;20015;-80
2022/10/25 17:53:19;;;;;;;7.55;1.30;;;;;;;13.87;100.00;99897.22;12218879;19;20014;-79
2022/10/25 17:57:21;;;;;;;12.15;1.35;;;;;;;13.83;100.00;99901.59;12195792;19;20135;-80
2022/10/25 18:01:27;;;;;;;5.72;1.38;;;;;;;13.77;100.00;99888.84;12224901;19;20034;-80
2022/10/25 18:05:29;;;;;;;8.02;3.22;;;;;;;13.72;100.00;99891.59;12248450;19;20016;-78
2022/10/25 18:09:31;;;;;;;4.55;1.35;;;;;;;13.66;100.00;99885.19;12234725;19;20404;-81
2022/10/25 18:13:32;;;;;;;5.25;1.25;;;;;;;13.63;100.00;99882.97;12219913;19;20002;-80
2022/10/25 18:17:36;;;;;;;6.75;1.40;;;;;;;13.59;100.00;99881.81;12198332;19;20015;-79
2022/10/25 18:21:38;;;;;;;9.30;1.33;;;;;;;13.55;100.00;99887.06;12219521;19;20550;-80
2022/10/25 18:25:50;;;;;;;9.97;1.40;;;;;;;13.52;100.00;99884.81;12229184;19;20026;-79
2022/10/25 18:29:52;;;;;;;6.97;1.20;;;;;;;13.50;100.00;99875.94;12243299;19;20081;-78
2022/10/25 18:33:55;;;;;;;7.47;1.27;;;;;;;13.46;100.00;99891.44;12261141;19;20110;-78
2022/10/25 18:37:57;;;;;;;6.82;1.50;;;;;;;13.44;100.00;99879.78;12239970;19;20010;-81
2022/10/25 18:41:58;;;;;;;9.25;3.20;;;;;;;13.43;100.00;99884.50;12203248;19;20067;-80
2022/10/25 18:46:01;;;;;;;9.13;2.20;;;;;;;13.43;100.00;99883.66;12222890;19;20014;-80
2022/10/25 18:50:03;;;;;;;9.75;1.85;;;;;;;13.42;100.00;99882.84;12219101;19;20027;-80
2022/10/25 18:54:10;;;;;;;5.30;2.03;;;;;;;13.43;100.00;99889.19;12193588;19;20038;-79
2022/10/25 18:58:13;;;;;;;12.10;2.92;;;;;;;13.44;100.00;99882.56;12214341;19;19999;-79
2022/10/25 19:02:15;;;;;;;;;;;;;;;13.41;100.00;99883.09;12226943;19;20087;-80